Time;durP1;ratioP1;P1;durP2;ratioP2;P2;SDS_P1;SDS_P2;PMS_P1;PMS_P2;Temp;Humidity;BMP_temperature;BMP_pressure;BME280_temperature;BME280_humidity;BME280_pressure;Samples;Min_cycle;Max_cycle;Signal;HPM_P1;HPM_P2
2024/02/15 00:07:17;;;;;;;0.40;0.10;;;2.50;91.20;;;;;;20527212;28;20247;-40
2024/02/15 00:17:19;;;;;;;0.82;0.10;;;2.80;91.50;;;;;;20526717;28;21248;-42
2024/02/15 00:27:24;;;;;;;1.48;0.10;;;2.80;90.90;;;;;;20529636;28;20246;-40
2024/02/15 00:37:25;;;;;;;0.55;0.10;;;2.70;90.60;;;;;;20520798;28;21032;-40
2024/02/15 00:47:28;;;;;;;0.30;0.10;;;2.70;90.90;;;;;;20544847;28;20641;-41
2024/02/15 00:57:30;;;;;;;0.32;0.15;;;2.90;90.30;;;;;;20541218;28;20171;-40
2024/02/15 01:07:32;;;;;;;1.83;0.20;;;3.20;90.80;;;;;;20544163;28;20562;-40
2024/02/15 01:17:34;;;;;;;1.00;0.20;;;3.20;90.90;;;;;;20542328;28;20076;-41
2024/02/15 01:27:36;;;;;;;0.43;0.20;;;3.30;91.10;;;;;;20543989;28;20091;-40
2024/02/15 01:37:37;;;;;;;0.30;0.10;;;3.20;92.10;;;;;;20541754;28;20199;-40
2024/02/15 01:47:43;;;;;;;0.38;0.20;;;3.00;92.30;;;;;;20535862;28;20136;-40
2024/02/15 01:57:48;;;;;;;0.40;0.10;;;2.90;93.00;;;;;;20537029;28;20132;-40
2024/02/15 02:07:50;;;;;;;0.22;0.10;;;2.90;92.30;;;;;;20538815;28;20514;-40
2024/02/15 02:17:52;;;;;;;0.35;0.10;;;2.90;92.90;;;;;;20538137;28;20069;-40
2024/02/15 02:27:55;;;;;;;0.40;0.10;;;3.00;93.00;;;;;;20517526;28;20865;-40
2024/02/15 02:37:57;;;;;;;0.95;0.22;;;2.90;93.40;;;;;;20534322;28;20664;-40
2024/02/15 02:47:59;;;;;;;0.50;0.20;;;3.00;93.20;;;;;;20534421;28;20167;-40
2024/02/15 02:58:01;;;;;;;0.25;0.10;;;2.90;93.80;;;;;;20534986;28;20126;-40
2024/02/15 03:08:03;;;;;;;0.75;0.30;;;2.70;93.80;;;;;;20534558;28;20694;-40
2024/02/15 03:18:06;;;;;;;0.60;0.25;;;2.70;92.30;;;;;;20515977;28;20122;-40
2024/02/15 03:28:09;;;;;;;0.80;0.20;;;3.20;92.80;;;;;;20530635;28;20103;-40
2024/02/15 03:38:12;;;;;;;1.58;0.20;;;3.00;93.60;;;;;;20274374;28;20046;-39
2024/02/15 03:48:14;;;;;;;1.08;0.20;;;2.80;93.90;;;;;;20275476;28;20055;-40
2024/02/15 03:58:16;;;;;;;0.60;0.28;;;2.90;94.00;;;;;;20277483;28;20692;-40
2024/02/15 04:08:18;;;;;;;0.50;0.20;;;2.80;93.70;;;;;;20411755;28;22048;-40
2024/02/15 04:18:20;;;;;;;1.23;0.30;;;3.00;93.50;;;;;;20463157;28;20400;-40
2024/02/15 04:28:22;;;;;;;0.98;0.20;;;3.00;93.50;;;;;;20464471;28;21848;-39
2024/02/15 04:38:25;;;;;;;2.20;0.30;;;3.00;93.40;;;;;;20464475;28;20168;-40
2024/02/15 04:48:27;;;;;;;1.02;0.20;;;2.80;94.60;;;;;;20510963;28;20168;-40
2024/02/15 04:58:28;;;;;;;0.80;0.20;;;2.70;95.00;;;;;;20544500;28;20132;-40
2024/02/15 05:08:31;;;;;;;0.70;0.22;;;2.60;94.70;;;;;;20542934;28;20128;-39
2024/02/15 05:18:35;;;;;;;0.52;0.30;;;2.60;94.90;;;;;;20544027;28;20120;-40
2024/02/15 05:28:37;;;;;;;0.45;0.20;;;2.60;94.20;;;;;;20536815;28;20134;-39
2024/02/15 05:38:45;;;;;;;1.23;0.30;;;2.70;94.20;;;;;;20537353;28;21145;-39
2024/02/15 05:48:47;;;;;;;0.73;0.20;;;2.80;94.30;;;;;;20536401;28;20169;-41
2024/02/15 05:58:52;;;;;;;0.30;0.20;;;2.90;94.70;;;;;;20534133;28;20710;-40
2024/02/15 06:08:57;;;;;;;0.25;0.15;;;3.00;94.90;;;;;;20535001;28;20156;-40
2024/02/15 06:18:59;;;;;;;1.23;0.28;;;2.80;95.50;;;;;;20513514;28;20163;-40
2024/02/15 06:49:41;;;;;;;0.67;0.17;;;2.90;95.80;;;;;;20528228;28;21223;-40
2024/02/15 06:59:47;;;;;;;0.90;0.20;;;3.10;95.60;;;;;;20528459;28;20865;-39
2024/02/15 07:09:48;;;;;;;0.80;0.20;;;3.30;95.20;;;;;;20526997;28;20136;-40
2024/02/15 07:19:53;;;;;;;0.80;0.20;;;3.70;96.00;;;;;;20526193;28;20247;-41
2024/02/15 07:29:55;;;;;;;0.50;0.20;;;4.00;94.90;;;;;;20512079;28;20164;-40
2024/02/15 07:40:01;;;;;;;0.35;0.20;;;4.30;95.70;;;;;;20527456;28;20171;-40
2024/02/15 07:50:03;;;;;;;0.50;0.20;;;4.60;94.70;;;;;;20523451;28;20065;-40
2024/02/15 08:00:11;;;;;;;0.30;0.13;;;4.80;94.00;;;;;;20526193;28;20136;-41
2024/02/15 08:10:13;;;;;;;10.15;0.40;;;5.10;94.40;;;;;;20531283;28;20722;-43
2024/02/15 08:20:25;;;;;;;0.20;0.15;;;6.20;93.80;;;;;;20507046;28;20049;-41
2024/02/15 08:30:27;;;;;;;6.53;0.40;;;7.60;90.90;;;;;;20527149;28;20244;-41
2024/02/15 08:40:29;;;;;;;0.63;0.20;;;8.70;89.40;;;;;;20523129;28;20246;-44
2024/02/15 08:50:30;;;;;;;0.30;0.25;;;9.40;88.60;;;;;;20527562;28;20184;-42
2024/02/15 09:00:32;;;;;;;1.05;0.30;;;9.90;88.70;;;;;;20532739;28;20099;-41
2024/02/15 09:10:36;;;;;;;3.90;0.50;;;10.20;85.70;;;;;;20535207;28;20144;-42
2024/02/15 09:20:44;;;;;;;1.02;0.20;;;10.90;86.30;;;;;;20536203;28;20058;-42
2024/02/15 09:30:47;;;;;;;0.70;0.20;;;11.50;82.90;;;;;;20536352;28;20244;-42
2024/02/15 09:40:49;;;;;;;0.40;0.20;;;12.00;80.90;;;;;;20536651;28;20176;-41
2024/02/15 09:50:55;;;;;;;1.33;0.50;;;12.20;78.30;;;;;;20532251;28;20206;-40
2024/02/15 10:00:57;;;;;;;0.35;0.22;;;12.60;80.50;;;;;;20537582;28;20088;-41
2024/02/15 10:11:09;;;;;;;0.68;0.40;;;13.20;81.30;;;;;;20538750;28;20129;-41
2024/02/15 10:21:25;;;;;;;1.88;0.45;;;13.50;79.00;;;;;;20534707;28;20137;-43
2024/02/15 10:31:26;;;;;;;1.02;0.20;;;13.60;80.50;;;;;;20535083;28;20087;-41
2024/02/15 10:41:36;;;;;;;0.77;0.30;;;13.60;81.50;;;;;;20533850;28;21756;-43
2024/02/15 10:51:43;;;;;;;1.00;0.30;;;13.60;77.10;;;;;;20533296;28;20421;-41
2024/02/15 11:01:55;;;;;;;0.95;0.50;;;13.20;80.50;;;;;;20529823;28;20847;-41
2024/02/15 11:11:58;;;;;;;1.65;0.88;;;13.00;80.10;;;;;;20529556;28;21017;-41
2024/02/15 11:22:03;;;;;;;2.17;0.98;;;13.20;81.00;;;;;;20530035;28;21203;-41
2024/02/15 11:32:05;;;;;;;2.83;1.38;;;13.80;81.80;;;;;;20529201;28;20267;-42
2024/02/15 11:42:29;;;;;;;2.30;1.20;;;14.20;81.00;;;;;;20528974;28;20672;-42
2024/02/15 11:52:31;;;;;;;5.07;2.13;;;14.40;78.80;;;;;;20527212;28;21854;-41
2024/02/15 12:23:35;;;;;;;6.07;3.13;;;14.30;83.60;;;;;;20305211;28;20129;-41
2024/02/15 12:33:37;;;;;;;5.35;3.70;;;14.30;82.80;;;;;;20300922;28;20063;-41
2024/02/15 12:43:39;;;;;;;6.35;3.80;;;14.00;83.70;;;;;;20314226;28;20288;-41
2024/02/15 12:53:44;;;;;;;6.32;3.85;;;13.80;84.90;;;;;;20385352;28;20139;-41
2024/02/15 13:03:46;;;;;;;6.18;3.80;;;13.50;81.60;;;;;;20541985;28;20362;-42
2024/02/15 13:13:48;;;;;;;7.70;4.97;;;13.10;83.80;;;;;;20540601;28;20956;-42
2024/02/15 13:23:50;;;;;;;7.28;4.75;;;12.90;85.20;;;;;;20539374;28;20238;-41
2024/02/15 13:33:51;;;;;;;10.20;6.18;;;12.50;87.20;;;;;;20541304;28;20708;-41
2024/02/15 13:43:55;;;;;;;11.30;6.35;;;12.30;89.10;;;;;;20536170;28;20477;-42
2024/02/15 13:53:59;;;;;;;12.32;7.30;;;12.20;87.70;;;;;;20537333;28;20719;-41
2024/02/15 14:04:01;;;;;;;11.82;7.97;;;12.00;89.20;;;;;;20534280;28;20172;-41
2024/02/15 14:14:03;;;;;;;12.52;7.95;;;11.50;90.40;;;;;;20535945;28;20809;-43
2024/02/15 14:24:06;;;;;;;14.65;9.90;;;10.90;90.40;;;;;;20531251;28;20622;-41
2024/02/15 14:34:10;;;;;;;25.67;15.82;;;10.50;91.70;;;;;;20531539;28;20176;-40
2024/02/15 14:44:13;;;;;;;29.42;17.10;;;10.10;93.50;;;;;;20534642;28;20958;-40
2024/02/15 14:54:15;;;;;;;26.23;16.95;;;9.80;94.20;;;;;;20534740;28;20128;-40
2024/02/15 15:04:17;;;;;;;27.65;18.63;;;9.40;95.30;;;;;;20533258;28;20179;-40
2024/02/15 15:14:24;;;;;;;27.92;17.90;;;9.40;95.70;;;;;;20533119;28;20174;-40
2024/02/15 15:24:26;;;;;;;25.63;17.20;;;9.60;95.90;;;;;;20529814;28;20987;-40
2024/02/15 15:34:30;;;;;;;27.27;18.27;;;9.60;95.00;;;;;;20510979;28;20116;-41
2024/02/15 15:44:33;;;;;;;27.85;18.48;;;9.40;96.20;;;;;;20529304;28;20140;-42
2024/02/15 15:54:35;;;;;;;27.58;18.38;;;9.00;97.00;;;;;;20524434;28;20556;-40
2024/02/15 16:04:44;;;;;;;29.63;20.17;;;8.50;97.70;;;;;;20525636;28;21844;-40
2024/02/15 16:14:48;;;;;;;26.80;18.42;;;7.80;99.20;;;;;;20531191;28;20243;-40
2024/02/15 16:24:50;;;;;;;19.00;11.75;;;7.10;99.90;;;;;;20528134;28;20125;-43
2024/02/15 16:34:54;;;;;;;13.98;8.25;;;6.50;99.90;;;;;;20525834;28;20445;-40
2024/02/15 16:44:57;;;;;;;8.95;4.88;;;6.00;99.90;;;;;;20528224;28;20190;-40
2024/02/15 16:54:59;;;;;;;7.40;4.63;;;5.30;99.90;;;;;;20523339;28;20130;-40
2024/02/15 17:05:00;;;;;;;6.07;3.60;;;4.80;99.90;;;;;;20530944;28;20069;-40
2024/02/15 17:15:07;;;;;;;9.38;3.95;;;4.50;99.90;;;;;;20529435;28;20554;-42
2024/02/15 17:25:12;;;;;;;9.23;3.83;;;4.30;99.90;;;;;;20542678;28;20182;-41
2024/02/15 17:35:16;;;;;;;10.80;4.32;;;4.20;99.90;;;;;;20541358;28;20147;-40
2024/02/15 17:45:18;;;;;;;6.70;3.53;;;4.00;99.90;;;;;;20541110;28;20427;-40
2024/02/15 17:55:20;;;;;;;7.75;3.33;;;3.80;99.90;;;;;;20538958;28;20810;-41
2024/02/15 18:05:26;;;;;;;6.65;3.80;;;3.70;99.90;;;;;;20537943;28;20255;-41
2024/02/15 18:15:32;;;;;;;9.80;4.28;;;3.70;99.90;;;;;;20536372;28;20160;-40
2024/02/15 18:25:35;;;;;;;8.57;4.28;;;3.80;99.90;;;;;;20538806;28;20499;-40
2024/02/15 18:35:41;;;;;;;9.25;3.88;;;3.90;99.90;;;;;;20534941;28;20163;-41
2024/02/15 18:45:43;;;;;;;11.88;4.05;;;4.10;99.90;;;;;;20538731;28;20958;-40
2024/02/15 18:55:45;;;;;;;7.72;4.25;;;3.90;99.90;;;;;;20535012;28;20263;-40
2024/02/15 19:05:47;;;;;;;7.32;4.13;;;3.70;99.90;;;;;;20533727;28;21327;-40
2024/02/15 19:15:54;;;;;;;7.53;3.85;;;3.60;99.90;;;;;;20533663;28;20175;-41
2024/02/15 19:25:56;;;;;;;7.47;3.90;;;3.40;99.90;;;;;;20515074;28;20155;-41
2024/02/15 19:35:58;;;;;;;8.05;3.67;;;3.40;99.90;;;;;;20531034;28;20132;-41
2024/02/15 19:46:01;;;;;;;8.10;3.45;;;3.30;99.90;;;;;;20528566;28;20199;-42
2024/02/15 19:56:04;;;;;;;8.35;4.00;;;3.20;99.90;;;;;;20535129;28;20176;-42
2024/02/15 20:06:06;;;;;;;5.70;3.20;;;3.10;99.90;;;;;;20533044;28;21617;-40
2024/02/15 20:16:07;;;;;;;5.25;2.67;;;3.00;99.90;;;;;;20514124;28;21221;-41
2024/02/15 20:26:09;;;;;;;6.07;2.42;;;3.00;99.90;;;;;;20534016;28;20569;-42
2024/02/15 20:36:12;;;;;;;3.97;1.45;;;2.90;99.90;;;;;;20527755;28;20042;-40
2024/02/15 20:46:24;;;;;;;5.10;1.90;;;2.80;99.90;;;;;;20529285;28;20184;-43
2024/02/15 20:56:26;;;;;;;4.53;2.58;;;2.80;99.90;;;;;;20541548;28;21084;-42
2024/02/15 21:06:36;;;;;;;5.25;2.55;;;3.00;99.90;;;;;;20539486;28;20683;-42
2024/02/15 21:16:39;;;;;;;6.13;2.75;;;3.10;99.90;;;;;;20521691;28;20462;-40
2024/02/15 21:26:43;;;;;;;5.13;1.90;;;3.00;99.90;;;;;;20543756;28;20132;-40
2024/02/15 21:36:44;;;;;;;7.25;3.78;;;3.00;99.90;;;;;;20539023;28;21725;-41
2024/02/15 21:46:46;;;;;;;6.65;3.58;;;2.70;99.90;;;;;;20535155;28;20605;-40
2024/02/15 21:56:48;;;;;;;12.00;5.95;;;2.80;99.90;;;;;;20537173;28;20094;-43
2024/02/15 22:06:50;;;;;;;9.38;4.07;;;3.10;99.90;;;;;;20536003;28;20168;-41
2024/02/15 22:16:55;;;;;;;13.98;7.35;;;3.10;99.90;;;;;;20523559;28;20163;-42
2024/02/15 22:26:58;;;;;;;10.07;5.03;;;3.00;99.90;;;;;;20539383;28;20156;-43
2024/02/15 22:37:00;;;;;;;8.13;4.00;;;3.00;99.90;;;;;;20537025;28;20160;-43
2024/02/15 22:47:02;;;;;;;9.23;3.83;;;3.00;99.90;;;;;;20534768;28;20698;-41
2024/02/15 22:57:05;;;;;;;5.85;2.95;;;3.10;99.90;;;;;;20534663;28;20168;-44
2024/02/15 23:07:09;;;;;;;5.55;3.03;;;3.30;99.90;;;;;;20530262;28;21200;-40
2024/02/15 23:17:11;;;;;;;5.07;2.55;;;3.20;99.90;;;;;;20532617;28;20037;-40
2024/02/15 23:27:13;;;;;;;4.30;2.28;;;3.50;99.90;;;;;;20532414;28;20191;-41
2024/02/15 23:47:37;;;;;;;;;;;3.40;99.90;;;;;;20530581;28;20180;-41
2024/02/15 23:57:45;;;;;;;8.27;3.28;;;3.40;99.90;;;;;;20529413;28;20078;-42
